Bowling Green St University, Ohio
Current Conditions -  °F | °C
As of 6:53 PM on Sunday 25 Jan 2015 (Local Time) from KTDZ Reporting Station
Light Snow Light Snow  
Wind Chill:   Ceiling: 2000
Heat Index: 19°   Visibility: 1.5mi
Dew Point: 12°   Wind: 14mph
Humidity: 74%   Direction: 50°NE
Pressure: 29.93"   Gusts: 25mph
Location:  41.3748°N, 83.6515°W
Report Text: KTDZ 252353Z AUTO 05012G22KT 1 1/2SM -SN OVC020 M07/M11 A2993 RMK AO2 SLP143 P0000 60000 T10721111 11044 21072 53020 TSNO
Loading
Personal Weather Stations






























Interactive Weather Map New forecast layout! Learn more

10-Day Weather Forecast

Advertisements
Track Severe Weather on mobile